CheckWX is a tool to help pilots better visualize weather data.  It is not intended as a substitute for an official pre-flight weather briefing.

08:53:01 UTC

EBOS METAR
Ostend-Bruges International Airport
Ostend, Belgium
Current

33 mins ago

EBOS 190820Z 21009KT CAVOK 04/03 Q1019 NOSIG
Observed
Feb-19 @ 08:20 UTC
Wind
  • 210° at 9 KTS
Visibility
10,000+ meters
Flight Rules
VFR
Cloud Levels
  • Clear skies
Temperature
C / 39°F
Dewpoint
C / 37°F
Humidity
93%
Altimeter
30.09" Hg
Pressure
1018.92 hPa
Previous

1 hour ago

EBOS 190750Z 21008KT CAVOK 03/02 Q1019 NOSIG
Observed
Feb-19 @ 07:50 UTC
Wind
  • 210° at 8 KTS
Visibility
10,000+ meters
Flight Rules
VFR
Cloud Levels
  • Clear skies
Temperature
C / 37°F
Dewpoint
C / 36°F
Humidity
93%
Altimeter
30.09" Hg
Pressure
1018.92 hPa
Previous

2 hours ago

EBOS 190720Z 22008KT 9000 FEW035 03/01 Q1019 NOSIG
Observed
Feb-19 @ 07:20 UTC
Wind
  • 220° at 8 KTS
Visibility
8,996 meters
Flight Rules
VFR
Cloud Levels
  • Few at 3,500' AGL
Temperature
C / 37°F
Dewpoint
C / 34°F
Humidity
87%
Altimeter
30.09" Hg
Pressure
1018.92 hPa